createdAt,value
2023-04-14T00:02:13.787Z,70.49
2023-04-14T00:05:22.503Z,70.68
2023-04-14T00:08:29.106Z,71.53
2023-04-14T00:11:34.604Z,70.40
2023-04-14T00:14:43.420Z,70.94
2023-04-14T00:17:49.403Z,70.99
2023-04-14T00:20:58.689Z,70.76
2023-04-14T00:24:04.143Z,71.15
2023-04-14T00:27:10.496Z,71.45
2023-04-14T00:30:16.594Z,71.35
2023-04-14T00:33:23.224Z,71.78
2023-04-14T00:36:32.468Z,71.09
2023-04-14T00:39:40.274Z,71.88
2023-04-14T00:42:47.302Z,71.96
2023-04-14T00:45:54.968Z,72.99
2023-04-14T00:49:02.072Z,72.44
2023-04-14T00:52:12.402Z,71.92
2023-04-14T00:55:21.447Z,72.25
2023-04-14T00:58:29.480Z,71.88
2023-04-14T01:01:37.468Z,71.49
2023-04-14T01:04:53.411Z,71.82
2023-04-14T01:08:04.274Z,71.56
2023-04-14T01:11:26.416Z,71.23
2023-04-14T01:14:46.911Z,71.23
2023-04-14T01:18:08.337Z,70.87
2023-04-14T01:21:22.002Z,71.93
2023-04-14T01:25:03.649Z,71.30
2023-04-14T01:28:34.310Z,70.54
2023-04-14T01:31:51.311Z,70.06
2023-04-14T01:35:08.162Z,70.36
2023-04-14T01:38:27.636Z,70.62
2023-04-14T01:41:40.305Z,69.89
2023-04-14T01:44:48.945Z,70.61
2023-04-14T01:47:59.465Z,69.46
2023-04-14T01:51:09.345Z,69.46
2023-04-14T01:54:21.310Z,70.29
2023-04-14T01:57:29.925Z,69.65
2023-04-14T02:00:39.340Z,69.62
2023-04-14T02:03:52.219Z,69.78
2023-04-14T02:07:06.095Z,70.37
2023-04-14T02:10:15.134Z,69.79
2023-04-14T02:13:25.927Z,69.95
2023-04-14T02:16:34.074Z,70.18
2023-04-14T02:19:47.222Z,69.36
2023-04-14T02:22:53.054Z,70.02
2023-04-14T02:26:08.819Z,70.23
2023-04-14T02:29:19.294Z,69.68
2023-04-14T02:32:30.646Z,69.43
2023-04-14T02:35:47.279Z,70.17
2023-04-14T02:39:01.168Z,69.50
2023-04-14T02:42:16.999Z,69.09
2023-04-14T02:45:30.748Z,69.10
2023-04-14T02:48:43.208Z,68.65
2023-04-14T02:51:57.189Z,69.05
2023-04-14T02:55:06.973Z,69.76
2023-04-14T02:58:13.985Z,69.72
2023-04-14T03:01:22.689Z,69.98
2023-04-14T03:04:35.686Z,70.08
2023-04-14T03:07:54.210Z,69.04
2023-04-14T03:11:04.254Z,69.96
2023-04-14T03:14:11.504Z,70.27
2023-04-14T03:17:21.500Z,70.35
2023-04-14T03:20:30.700Z,70.07
2023-04-14T03:23:42.875Z,70.15
2023-04-14T03:26:52.437Z,70.46
2023-04-14T03:30:07.272Z,70.75
2023-04-14T03:33:22.044Z,70.62
2023-04-14T03:36:32.502Z,70.72
2023-04-14T03:39:43.661Z,70.24
2023-04-14T03:42:53.845Z,70.37
2023-04-14T03:46:00.889Z,70.04
2023-04-14T03:49:16.317Z,69.99
2023-04-14T03:52:28.151Z,69.22
2023-04-14T03:55:41.712Z,70.26
2023-04-14T03:58:51.348Z,69.99
2023-04-14T04:02:00.948Z,69.46
2023-04-14T04:05:10.603Z,70.17
2023-04-14T04:08:18.806Z,69.68
2023-04-14T04:11:32.029Z,70.44
2023-04-14T04:14:42.516Z,69.86
2023-04-14T04:17:54.363Z,70.34
2023-04-14T04:21:04.525Z,70.13
2023-04-14T04:24:11.872Z,70.06
2023-04-14T04:27:28.075Z,70.68
2023-04-14T04:30:43.766Z,70.00
2023-04-14T04:33:52.049Z,70.52
2023-04-14T04:36:59.910Z,70.00
2023-04-14T04:40:07.611Z,69.91
2023-04-14T04:43:16.309Z,69.91
2023-04-14T04:46:47.533Z,68.37
2023-04-14T04:49:54.648Z,68.29
2023-04-14T04:53:04.113Z,68.33
2023-04-14T04:56:10.927Z,69.01
2023-04-14T04:59:20.210Z,69.39
2023-04-14T05:02:26.063Z,69.10
2023-04-14T05:05:32.689Z,69.37
2023-04-14T05:08:38.508Z,68.42
2023-04-14T05:11:44.885Z,67.79
2023-04-14T05:14:53.209Z,68.33
2023-04-14T05:18:00.190Z,67.72
2023-04-14T05:21:06.898Z,67.98
2023-04-14T05:24:13.223Z,67.74
2023-04-14T05:27:18.680Z,68.66
2023-04-14T05:30:28.230Z,68.71
2023-04-14T05:33:33.764Z,68.65
2023-04-14T05:36:40.140Z,67.97
2023-04-14T05:39:45.902Z,68.16
2023-04-14T05:42:52.451Z,67.33
2023-04-14T05:46:01.882Z,66.84
2023-04-14T05:49:08.575Z,67.74
2023-04-14T05:52:14.113Z,67.25
2023-04-14T05:55:21.503Z,66.78
2023-04-14T05:58:27.065Z,66.43
2023-04-14T06:01:36.414Z,67.13
2023-04-14T06:04:41.975Z,66.30
2023-04-14T06:07:48.722Z,66.10
2023-04-14T06:10:54.207Z,66.87
2023-04-14T06:14:02.292Z,67.42
2023-04-14T06:17:10.887Z,66.93
2023-04-14T06:20:18.855Z,66.15
2023-04-14T06:23:26.924Z,65.61
2023-04-14T06:26:33.341Z,65.77
2023-04-14T06:29:38.884Z,65.19
2023-04-14T06:32:48.941Z,65.01
2023-04-14T06:35:55.173Z,64.50
2023-04-14T06:39:01.921Z,64.53
2023-04-14T06:42:07.643Z,65.01
2023-04-14T06:45:16.735Z,64.15
2023-04-14T06:48:24.952Z,63.58
2023-04-14T06:51:31.426Z,63.74
2023-04-14T06:54:37.068Z,63.98
2023-04-14T06:57:43.549Z,64.25
2023-04-14T07:00:49.037Z,63.86
2023-04-14T07:03:58.289Z,64.12
2023-04-14T07:07:04.416Z,64.02
2023-04-14T07:10:12.955Z,63.53
2023-04-14T07:13:18.457Z,62.84
2023-04-14T07:16:25.043Z,63.53
2023-04-14T07:19:33.346Z,61.37
2023-04-14T07:22:39.789Z,60.88
2023-04-14T07:25:45.332Z,60.73
2023-04-14T07:28:51.966Z,60.94
2023-04-14T07:31:57.701Z,60.14
2023-04-14T07:35:08.948Z,60.39
2023-04-14T07:38:14.494Z,60.64
2023-04-14T07:41:21.814Z,59.84
2023-04-14T07:44:27.603Z,59.70
2023-04-14T07:47:34.216Z,59.62
2023-04-14T07:50:42.621Z,58.75
2023-04-14T07:53:49.220Z,57.87
2023-04-14T07:56:55.140Z,58.30
2023-04-14T08:00:01.467Z,58.51
2023-04-14T08:03:07.579Z,58.44
2023-04-14T08:06:17.111Z,57.88
2023-04-14T08:09:22.578Z,57.58
2023-04-14T08:12:29.121Z,57.77
2023-04-14T08:15:35.327Z,56.48
2023-04-14T08:18:43.785Z,55.01
2023-04-14T08:21:52.422Z,54.96
2023-04-14T08:24:58.766Z,54.41
2023-04-14T08:28:04.300Z,54.50
2023-04-14T08:31:10.980Z,53.75
2023-04-14T08:34:20.976Z,53.60
2023-04-14T08:37:37.848Z,52.59
2023-04-14T08:40:46.646Z,53.01
2023-04-14T08:43:53.066Z,52.12
2023-04-14T08:46:59.840Z,52.45
2023-04-14T08:50:10.339Z,51.85
2023-04-14T08:53:24.704Z,52.55
2023-04-14T08:56:38.402Z,52.31
2023-04-14T08:59:45.399Z,52.64
2023-04-14T09:02:55.956Z,52.24
2023-04-14T09:06:04.110Z,51.72
2023-04-14T09:09:14.332Z,51.57
2023-04-14T09:12:21.174Z,50.37
2023-04-14T09:15:29.347Z,51.49
2023-04-14T09:18:36.478Z,50.13
2023-04-14T09:21:53.546Z,49.99
2023-04-14T09:25:03.714Z,48.52
2023-04-14T09:28:11.021Z,47.76
2023-04-14T09:31:17.071Z,47.48
2023-04-14T09:34:25.150Z,47.29
2023-04-14T09:37:32.325Z,47.77
2023-04-14T09:40:42.064Z,46.77
2023-04-14T09:43:48.126Z,45.83
2023-04-14T09:47:03.193Z,46.23
2023-04-14T09:50:10.726Z,44.86
2023-04-14T09:53:17.594Z,44.33
2023-04-14T09:56:30.888Z,45.04
2023-04-14T09:59:39.903Z,44.34
2023-04-14T10:02:52.290Z,43.62
2023-04-14T10:05:58.729Z,43.05
2023-04-14T10:09:06.167Z,42.98
2023-04-14T10:12:18.796Z,42.48
2023-04-14T10:15:24.963Z,40.63
2023-04-14T10:18:31.446Z,41.55
2023-04-14T10:21:38.023Z,41.76
2023-04-14T10:24:44.705Z,40.63
2023-04-14T10:27:54.413Z,41.44
2023-04-14T10:31:04.839Z,40.60
2023-04-14T10:34:12.273Z,40.61
2023-04-14T10:37:19.997Z,40.38
2023-04-14T10:40:25.881Z,39.08
2023-04-14T10:43:35.628Z,39.80
2023-04-14T10:46:47.179Z,38.95
2023-04-14T10:49:53.825Z,39.59
2023-04-14T10:53:00.706Z,39.49
2023-04-14T10:56:09.071Z,39.91
2023-04-14T10:59:17.882Z,40.27
2023-04-14T11:02:30.383Z,39.52
2023-04-14T11:05:37.887Z,39.80
2023-04-14T11:08:53.975Z,39.68
2023-04-14T11:12:05.348Z,40.64
2023-04-14T11:15:15.478Z,40.14
2023-04-14T11:18:35.172Z,39.19
2023-04-14T11:21:53.999Z,38.13
2023-04-14T11:24:59.582Z,37.78
2023-04-14T11:28:06.596Z,39.06
2023-04-14T11:31:21.061Z,38.30
2023-04-14T11:34:30.200Z,38.52
2023-04-14T11:37:39.196Z,38.25
2023-04-14T11:40:51.524Z,38.27
2023-04-14T11:43:57.762Z,37.38
2023-04-14T11:47:08.586Z,36.63
2023-04-14T11:50:14.750Z,36.47
2023-04-14T11:53:23.182Z,36.91
2023-04-14T11:56:29.121Z,36.88
2023-04-14T11:59:45.791Z,37.37
2023-04-14T12:02:55.058Z,35.78
2023-04-14T12:06:03.613Z,35.13
2023-04-14T12:09:12.765Z,34.89
2023-04-14T12:12:22.961Z,34.12
2023-04-14T12:15:29.570Z,34.65
2023-04-14T12:18:39.862Z,35.29
2023-04-14T12:21:45.978Z,34.66
2023-04-14T12:24:52.510Z,34.74
2023-04-14T12:27:58.634Z,35.18
2023-04-14T12:31:07.778Z,34.54
2023-04-14T12:34:20.238Z,34.67
2023-04-14T12:37:29.553Z,34.84
2023-04-14T12:40:42.911Z,34.59
2023-04-14T12:43:50.433Z,34.85
2023-04-14T12:46:56.943Z,34.37
2023-04-14T12:50:28.435Z,35.49
2023-04-14T12:53:34.765Z,36.28
2023-04-14T12:56:48.175Z,36.74
2023-04-14T13:00:05.607Z,36.46
2023-04-14T13:03:12.386Z,36.60
2023-04-14T13:06:23.004Z,36.31
2023-04-14T13:09:30.276Z,36.70
2023-04-14T13:12:36.185Z,36.41
2023-04-14T13:16:13.312Z,36.50
2023-04-14T13:19:08.758Z,36.56
2023-04-14T13:22:18.078Z,36.64
2023-04-14T13:25:23.637Z,35.74
2023-04-14T13:28:30.654Z,35.79
2023-04-14T13:31:36.365Z,36.29
2023-04-14T13:34:44.135Z,35.77
2023-04-14T13:37:52.672Z,36.29
2023-04-14T13:40:59.024Z,36.59
2023-04-14T13:44:04.802Z,36.90
2023-04-14T13:47:12.945Z,36.73
2023-04-14T13:50:19.123Z,36.76
2023-04-14T13:53:29.063Z,36.95
2023-04-14T13:56:34.747Z,36.72
2023-04-14T13:59:41.144Z,36.90
2023-04-14T14:02:47.670Z,37.01
2023-04-14T14:05:54.353Z,37.27
2023-04-14T14:09:08.154Z,37.45
2023-04-14T14:12:17.326Z,37.79
2023-04-14T14:15:22.858Z,38.08
2023-04-14T14:18:29.274Z,38.27
2023-04-14T14:21:34.796Z,37.80
2023-04-14T14:24:44.106Z,38.51
2023-04-14T14:27:50.462Z,38.68
2023-04-14T14:30:57.085Z,38.31
2023-04-14T14:34:02.811Z,38.44
2023-04-14T14:37:09.485Z,38.87
2023-04-14T14:40:18.332Z,38.38
2023-04-14T14:43:24.680Z,38.73
2023-04-14T14:46:30.293Z,38.70
2023-04-14T14:49:41.115Z,38.41
2023-04-14T14:52:48.999Z,38.23
2023-04-14T14:55:58.101Z,38.47
2023-04-14T14:59:03.599Z,38.41
2023-04-14T15:02:10.073Z,38.89
2023-04-14T15:05:15.633Z,38.93
2023-04-14T15:08:22.090Z,39.00
2023-04-14T15:11:30.949Z,38.80
2023-04-14T15:14:37.383Z,38.84
2023-04-14T15:17:42.905Z,39.04
2023-04-14T15:20:50.822Z,39.63
2023-04-14T15:23:56.648Z,39.57
2023-04-14T15:27:06.185Z,39.34
2023-04-14T15:30:12.999Z,39.72
2023-04-14T15:33:19.369Z,40.02
2023-04-14T15:36:25.238Z,39.79
2023-04-14T15:39:31.826Z,40.14
2023-04-14T15:42:40.130Z,39.95
2023-04-14T15:45:46.483Z,40.21
2023-04-14T15:48:51.993Z,40.58
2023-04-14T15:51:58.681Z,40.05
2023-04-14T15:55:04.241Z,40.23
2023-04-14T15:58:13.414Z,40.34
2023-04-14T16:01:18.943Z,40.75
2023-04-14T16:04:25.801Z,41.86
2023-04-14T16:07:32.642Z,42.18
2023-04-14T16:10:42.972Z,42.53
2023-04-14T16:13:52.775Z,41.74
2023-04-14T16:16:59.149Z,41.95
2023-04-14T16:20:04.848Z,43.33
2023-04-14T16:23:11.843Z,42.74
2023-04-14T16:26:18.742Z,43.46
2023-04-14T16:29:29.004Z,43.58
2023-04-14T16:32:34.589Z,44.12
2023-04-14T16:35:41.318Z,43.38
2023-04-14T16:38:46.851Z,43.81
2023-04-14T16:41:53.239Z,44.89
2023-04-14T16:45:02.034Z,44.92
2023-04-14T16:48:08.533Z,45.62
2023-04-14T16:51:14.559Z,46.25
2023-04-14T16:54:20.887Z,46.00
2023-04-14T16:57:26.536Z,47.18
2023-04-14T17:00:35.913Z,47.30
2023-04-14T17:03:41.621Z,47.63
2023-04-14T17:06:49.441Z,48.35
2023-04-14T17:09:54.911Z,48.11
2023-04-14T17:13:01.239Z,48.82
2023-04-14T17:16:11.404Z,48.76
2023-04-14T17:19:17.765Z,49.10
2023-04-14T17:22:23.250Z,49.15
2023-04-14T17:25:30.814Z,49.60
2023-04-14T17:28:37.550Z,49.02
2023-04-14T17:31:48.331Z,49.95
2023-04-14T17:34:55.148Z,49.67
2023-04-14T17:38:01.647Z,49.54
2023-04-14T17:41:09.078Z,50.12
2023-04-14T17:44:17.098Z,49.95
2023-04-14T17:47:25.694Z,50.74
2023-04-14T17:50:33.923Z,50.51
2023-04-14T17:53:39.588Z,50.96
2023-04-14T17:56:46.214Z,51.25
2023-04-14T17:59:51.815Z,51.41
2023-04-14T18:03:01.915Z,52.74
2023-04-14T18:06:07.929Z,53.29
2023-04-14T18:09:14.390Z,53.14
2023-04-14T18:12:23.027Z,53.35
2023-04-14T18:15:29.479Z,53.38
2023-04-14T18:18:37.909Z,53.43
2023-04-14T18:21:45.149Z,52.96
2023-04-14T18:24:51.227Z,52.66
2023-04-14T18:31:07.080Z,53.21
2023-04-14T18:34:17.058Z,52.92
2023-04-14T18:37:22.745Z,53.67
2023-04-14T18:40:29.768Z,53.57
2023-04-14T18:43:37.257Z,53.45
2023-04-14T18:46:44.238Z,53.60
2023-04-14T18:49:52.535Z,53.28
2023-04-14T18:52:58.893Z,53.46
2023-04-14T18:56:04.905Z,53.71
2023-04-14T18:59:11.606Z,53.66
2023-04-14T19:02:17.503Z,53.19
2023-04-14T19:05:27.697Z,53.42
2023-04-14T19:08:33.648Z,53.65
2023-04-14T19:11:40.346Z,53.96
2023-04-14T19:14:47.268Z,54.11
2023-04-14T19:17:53.757Z,54.50
2023-04-14T19:21:02.143Z,54.83
2023-04-14T19:24:09.181Z,54.94
2023-04-14T19:27:15.096Z,55.32
2023-04-14T19:30:22.146Z,55.67
2023-04-14T19:33:27.914Z,56.07
2023-04-14T19:36:37.763Z,56.31
2023-04-14T19:39:43.338Z,56.27
2023-04-14T19:42:49.690Z,56.70
2023-04-14T19:45:58.288Z,56.71
2023-04-14T19:49:04.601Z,56.85
2023-04-14T19:52:13.501Z,57.03
2023-04-14T19:55:20.417Z,57.33
2023-04-14T19:58:26.962Z,57.80
2023-04-14T20:01:33.981Z,58.13
2023-04-14T20:04:39.906Z,58.03
2023-04-14T20:07:50.130Z,57.88
2023-04-14T20:10:56.889Z,57.60
2023-04-14T20:14:04.027Z,57.78
2023-04-14T20:17:09.842Z,58.23
2023-04-14T20:20:16.839Z,58.07
2023-04-14T20:23:25.444Z,58.43
2023-04-14T20:26:32.503Z,57.86
2023-04-14T20:29:38.085Z,57.93
2023-04-14T20:32:44.482Z,58.06
2023-04-14T20:35:53.684Z,58.20
2023-04-14T20:39:03.282Z,58.30
2023-04-14T20:42:09.608Z,58.19
2023-04-14T20:45:15.963Z,58.58
2023-04-14T20:48:21.828Z,59.01
2023-04-14T20:51:28.301Z,58.71
2023-04-14T20:54:36.783Z,58.64
2023-04-14T20:57:43.245Z,59.16
2023-04-14T21:00:49.539Z,59.40
2023-04-14T21:03:56.483Z,58.99
2023-04-14T21:07:02.227Z,59.11
2023-04-14T21:10:15.563Z,59.04
2023-04-14T21:15:30.902Z,58.94
2023-04-14T21:16:47.564Z,59.06
2023-04-14T21:19:53.277Z,58.32
2023-04-14T21:23:00.406Z,58.82
2023-04-14T21:26:08.753Z,58.83
2023-04-14T21:29:15.150Z,58.46
2023-04-14T21:32:20.987Z,58.32
2023-04-14T21:35:27.440Z,58.76
2023-04-14T21:38:33.157Z,58.93
2023-04-14T21:41:42.598Z,58.49
2023-04-14T21:44:49.442Z,59.08
2023-04-14T21:47:55.742Z,58.98
2023-04-14T21:51:01.834Z,59.09
2023-04-14T21:54:08.221Z,58.54
2023-04-14T21:57:16.752Z,58.65
2023-04-14T22:00:24.289Z,58.85
2023-04-14T22:03:30.269Z,58.88
2023-04-14T22:06:38.421Z,59.19
2023-04-14T22:09:44.348Z,58.38
2023-04-14T22:12:53.957Z,58.54
2023-04-14T22:15:59.409Z,58.91
2023-04-14T22:19:06.621Z,58.76
2023-04-14T22:22:12.435Z,59.08
2023-04-14T22:25:19.915Z,58.97
2023-04-14T22:28:28.251Z,58.95
2023-04-14T22:31:34.652Z,59.06
2023-04-14T22:34:40.245Z,59.31
2023-04-14T22:37:46.565Z,59.75
2023-04-14T22:40:52.788Z,59.06
2023-04-14T22:44:02.280Z,59.60
2023-04-14T22:47:07.845Z,59.21
2023-04-14T22:50:14.805Z,59.83
2023-04-14T22:53:20.247Z,60.00
2023-04-14T22:56:26.955Z,59.93
2023-04-14T22:59:35.265Z,59.42
2023-04-14T23:02:42.552Z,59.61
2023-04-14T23:05:48.676Z,59.43
2023-04-14T23:08:55.398Z,59.86
2023-04-14T23:12:01.557Z,59.47
2023-04-14T23:15:12.027Z,60.08
2023-04-14T23:18:17.753Z,59.15
2023-04-14T23:21:25.148Z,60.05
2023-04-14T23:24:31.045Z,60.01
2023-04-14T23:27:37.392Z,59.81
2023-04-14T23:30:46.007Z,59.63
2023-04-14T23:33:53.138Z,59.73
2023-04-14T23:36:58.652Z,60.32
2023-04-14T23:40:06.405Z,59.92
2023-04-14T23:43:11.880Z,60.14
2023-04-14T23:46:21.984Z,60.24
2023-04-14T23:49:34.039Z,60.25
2023-04-14T23:52:41.672Z,61.01
2023-04-14T23:55:47.920Z,60.18
2023-04-14T23:58:54.293Z,60.59
